Mountain Home AFB, ID

12:43 PM MDT on August 23, 2017 (GMT -0600)
Mountain Home Air Force Base | | Change Station
Active Advisory: Fire Weather Warning

Elev 2995 ft 43.04 °N, 115.87 °W | Updated 45 minutes ago

Mostly Cloudy
Mostly Cloudy
84 °F
Feels Like 84 °F
N
14
Wind Variable Wind from East

Today
High -- | Low -- °F
--% Chance of Precip.
Yesterday
High -- | Low -- °F
Precip. -- in
Pressure 29.96 in
Visibility 10.0 miles
Clouds Few 9500 ft
Few 13000 ft
Mostly Cloudy 16000 ft
Dew Point 49 °F
Humidity 29%
Rainfall 0.00 in
Snow Depth Not available.
6:58 AM 8:32 PM
Waxing Crescent, 5% visible
METAR KMUO 231758Z COR 10012KT 10SM FEW095 FEW130 BKN160 29/09 A3004 RMK AO2 SLP144 T02910092 10291 20199 50002 COR 1803
Pressure 29.96 in
Visibility 10.0 miles
Clouds Few 9500 ft
Few 13000 ft
Mostly Cloudy 16000 ft
Dew Point 49 °F
Humidity 29%
Rainfall 0.00 in
Snow Depth Not available.
6:58 AM 8:32 PM
Waxing Crescent, 5% visible
METAR KMUO 231758Z COR 10012KT 10SM FEW095 FEW130 BKN160 29/09 A3004 RMK AO2 SLP144 T02910092 10291 20199 50002 COR 1803

Get Your Daily Forecast Email!

Thanks for signing up!

Be on the lookout for a verification email in your inbox.

You'll start receiving severe weather alerts in your inbox..

×

10-Day Weather Forecast

Almanac

Astronomy

Aug. 23, 2017 Rise Set
Actual Time
Civil Twilight
Nautical Twilight
Astronomical Twilight
Moon
Length of Visible Light
Length of Day
Tomorrow will be .
, % of the Moon is Illuminated

Today's Extremes

State Highs State Lows

Community

WunderPhotos

Category 6

Welcome to Category 6. This is the collective home for Weather Underground's featured writeups by Dr. Jeff Masters (right), Bob Henson (left), Chris Burt, and other regular contributors.

Nearby

Air Quality

  Air Quality AQ Index Pollutant
Not available.

Snow Depth

Station Depth Elevation

Earthquake Activity

City Distance Mag. Time & Date
Minimum magnitude displayed is 2.5.

Coastal Water Temperatures

Place Temperature

Stations

Nearby Weather Stations

Station Location Temp. Windchill Dew Point Humidity Wind Precip. Elev Updated Type
                   

Watches & Warnings

Fire Weather Warning
Issued: 8:03 AM PDT Aug. 23, 2017 – National Weather Service

... Red flag warning for lightning remains in effect from 3 PM MDT
/2 PM PDT/ this afternoon to 3 am MDT /2 am PDT/ Thursday...

* thunderstorms... scattered in coverage this afternoon through
late tonight.

* Outflow winds... up to 45 mph.

Precautionary/preparedness actions...

A red flag warning means that critical fire weather conditions
are either occurring now, or will shortly.




L